Time;durP1;ratioP1;P1;durP2;ratioP2;P2;SDS_P1;SDS_P2;PMS_P1;PMS_P2;Temp;Humidity;BMP_temperature;BMP_pressure;BME280_temperature;BME280_humidity;BME280_pressure;Samples;Min_cycle;Max_cycle;Signal;HPM_P1;HPM_P2
2023/02/11 00:00:29;;;;;;;46.03;22.75;;;;;;;;;;6146155;28;20066;-66
2023/02/11 00:03:31;;;;;;;48.50;22.67;;;;;;;;;;6144652;28;20047;-66
2023/02/11 00:06:35;;;;;;;43.65;23.52;;;;;;;;;;6144619;28;20058;-66
2023/02/11 00:09:37;;;;;;;47.92;22.42;;;;;;;;;;6145128;28;20746;-66
2023/02/11 00:12:39;;;;;;;45.17;22.02;;;;;;;;;;6146305;28;20067;-66
2023/02/11 00:15:42;;;;;;;51.70;24.17;;;;;;;;;;6144745;28;20047;-67
2023/02/11 00:18:44;;;;;;;50.25;24.85;;;;;;;;;;6140335;28;20055;-66
2023/02/11 00:21:46;;;;;;;48.55;24.10;;;;;;;;;;6143306;28;20067;-66
2023/02/11 00:24:47;;;;;;;55.53;24.30;;;;;;;;;;6146122;28;20055;-66
2023/02/11 00:27:49;;;;;;;48.15;24.13;;;;;;;;;;6146396;28;20062;-66
2023/02/11 00:30:55;;;;;;;50.75;25.92;;;;;;;;;;6142730;28;20063;-66
2023/02/11 00:33:57;;;;;;;50.40;25.02;;;;;;;;;;6150780;28;20047;-66
2023/02/11 00:36:59;;;;;;;53.83;25.65;;;;;;;;;;6149648;28;20093;-66
2023/02/11 00:40:02;;;;;;;55.03;26.67;;;;;;;;;;6143432;28;20059;-66
2023/02/11 00:43:03;;;;;;;54.15;26.98;;;;;;;;;;6153206;28;20054;-66
2023/02/11 00:46:07;;;;;;;62.28;27.33;;;;;;;;;;6147654;28;20110;-67
2023/02/11 00:49:08;;;;;;;54.85;28.15;;;;;;;;;;6151308;28;20055;-67
2023/02/11 00:52:10;;;;;;;55.88;28.73;;;;;;;;;;6151514;28;20066;-66
2023/02/11 00:55:11;;;;;;;64.70;27.80;;;;;;;;;;6150208;28;20070;-67
2023/02/11 00:58:13;;;;;;;62.55;28.52;;;;;;;;;;6151147;28;20354;-66
2023/02/11 01:01:16;;;;;;;59.80;30.33;;;;;;;;;;6150877;28;20063;-66
2023/02/11 01:04:18;;;;;;;67.35;29.30;;;;;;;;;;6148467;28;20369;-66
2023/02/11 01:07:20;;;;;;;63.38;28.20;;;;;;;;;;6154720;28;20055;-66
2023/02/11 01:10:21;;;;;;;57.78;29.73;;;;;;;;;;6148829;28;20090;-67
2023/02/11 01:13:23;;;;;;;64.93;29.85;;;;;;;;;;6149864;28;20047;-67
2023/02/11 01:16:26;;;;;;;60.67;31.20;;;;;;;;;;6146999;28;20047;-68
2023/02/11 01:19:28;;;;;;;58.03;30.42;;;;;;;;;;6149946;28;20091;-67
2023/02/11 01:22:29;;;;;;;62.33;32.63;;;;;;;;;;6147292;28;20051;-67
2023/02/11 01:25:31;;;;;;;66.00;33.40;;;;;;;;;;6149208;28;20331;-67
2023/02/11 01:28:33;;;;;;;61.53;32.05;;;;;;;;;;6148803;28;20054;-69
2023/02/11 01:31:36;;;;;;;62.60;32.38;;;;;;;;;;6151053;28;20059;-67
2023/02/11 01:34:37;;;;;;;65.43;33.63;;;;;;;;;;6149323;28;20223;-68
2023/02/11 01:37:39;;;;;;;62.88;32.40;;;;;;;;;;6148416;28;20094;-69
2023/02/11 01:40:41;;;;;;;63.42;34.13;;;;;;;;;;6147544;28;20336;-68
2023/02/11 01:43:45;;;;;;;64.18;33.00;;;;;;;;;;6148924;28;20061;-67
2023/02/11 01:46:48;;;;;;;60.70;32.28;;;;;;;;;;6147973;28;20059;-68
2023/02/11 01:49:53;;;;;;;58.72;31.10;;;;;;;;;;6147178;28;20055;-69
2023/02/11 01:57:20;;;;;;;63.30;30.83;;;;;;;;;;6144655;28;20055;-68
2023/02/11 01:59:41;;;;;;;73.18;32.80;;;;;;;;;;6146987;28;20239;-68
2023/02/11 02:02:50;;;;;;;66.75;30.40;;;;;;;;;;6148967;28;20064;-69
2023/02/11 02:05:53;;;;;;;57.63;30.23;;;;;;;;;;6147786;28;20050;-67
2023/02/11 02:08:57;;;;;;;61.37;31.77;;;;;;;;;;6145233;28;20358;-69
2023/02/11 02:11:59;;;;;;;65.13;32.17;;;;;;;;;;6149926;28;20711;-69
2023/02/11 02:15:25;;;;;;;54.67;29.73;;;;;;;;;;6149376;28;20102;-70
2023/02/11 02:18:38;;;;;;;66.65;30.17;;;;;;;;;;6148522;28;20055;-71
2023/02/11 02:22:06;;;;;;;64.82;29.67;;;;;;;;;;6150997;28;20051;-71
2023/02/11 02:25:33;;;;;;;61.45;29.70;;;;;;;;;;6148959;28;20039;-71
2023/02/11 02:28:47;;;;;;;55.45;29.30;;;;;;;;;;6147658;28;20061;-72
2023/02/11 02:32:23;;;;;;;54.35;27.88;;;;;;;;;;6146801;28;20051;-71
2023/02/11 02:35:35;;;;;;;59.85;29.25;;;;;;;;;;6143236;28;20071;-71
2023/02/11 02:38:40;;;;;;;54.65;28.92;;;;;;;;;;6147949;28;20043;-70
2023/02/11 02:41:43;;;;;;;55.80;27.65;;;;;;;;;;6151042;28;20342;-69
2023/02/11 02:44:48;;;;;;;51.90;26.75;;;;;;;;;;6146970;28;20244;-69
2023/02/11 02:47:50;;;;;;;50.10;26.63;;;;;;;;;;6146484;28;20046;-70
2023/02/11 02:50:55;;;;;;;47.72;25.40;;;;;;;;;;6147369;28;20055;-72
2023/02/11 02:54:06;;;;;;;50.58;25.70;;;;;;;;;;6146848;28;20307;-71
2023/02/11 02:57:18;;;;;;;52.97;25.67;;;;;;;;;;6144557;28;20058;-69
2023/02/11 03:00:24;;;;;;;52.63;26.25;;;;;;;;;;6148465;28;20055;-72
2023/02/11 03:03:30;;;;;;;48.95;26.58;;;;;;;;;;6146763;28;20106;-70
2023/02/11 03:06:38;;;;;;;56.30;25.60;;;;;;;;;;6146500;28;20154;-70
2023/02/11 03:09:42;;;;;;;46.97;24.95;;;;;;;;;;6145349;28;20055;-70
2023/02/11 03:12:45;;;;;;;46.15;25.10;;;;;;;;;;6146521;28;20126;-70
2023/02/11 03:15:50;;;;;;;47.28;26.05;;;;;;;;;;6143869;28;20062;-70
2023/02/11 03:18:57;;;;;;;56.72;25.73;;;;;;;;;;6149638;28;20098;-70
2023/02/11 03:22:02;;;;;;;49.38;25.25;;;;;;;;;;6145985;28;20330;-69
2023/02/11 03:25:04;;;;;;;49.58;25.30;;;;;;;;;;6146248;28;20047;-70
2023/02/11 03:28:11;;;;;;;47.95;24.60;;;;;;;;;;6148586;28;20070;-70
2023/02/11 03:31:17;;;;;;;49.95;25.65;;;;;;;;;;6144547;28;20086;-69
2023/02/11 03:34:24;;;;;;;49.30;25.75;;;;;;;;;;6147121;28;20069;-70
2023/02/11 03:37:30;;;;;;;43.45;24.08;;;;;;;;;;6146012;28;20048;-67
2023/02/11 03:40:36;;;;;;;44.40;24.55;;;;;;;;;;6144933;28;20347;-66
2023/02/11 03:43:42;;;;;;;53.20;26.92;;;;;;;;;;6147632;28;20058;-67
2023/02/11 03:46:48;;;;;;;47.00;24.25;;;;;;;;;;6145331;28;20055;-67
2023/02/11 03:49:52;;;;;;;46.72;24.52;;;;;;;;;;6145097;28;20058;-67
2023/02/11 03:52:55;;;;;;;51.97;26.17;;;;;;;;;;6140491;28;20059;-66
2023/02/11 03:56:00;;;;;;;49.75;25.48;;;;;;;;;;6144747;28;20047;-66
2023/02/11 03:59:02;;;;;;;53.53;25.60;;;;;;;;;;6146898;28;20332;-68
2023/02/11 04:02:03;;;;;;;50.67;25.25;;;;;;;;;;6146915;28;20053;-67
2023/02/11 04:05:07;;;;;;;45.53;24.35;;;;;;;;;;6147837;28;20055;-67
2023/02/11 04:08:10;;;;;;;50.15;26.77;;;;;;;;;;6152803;28;20077;-68
2023/02/11 04:11:11;;;;;;;50.33;25.02;;;;;;;;;;6148471;28;20055;-67
2023/02/11 04:14:13;;;;;;;48.80;25.50;;;;;;;;;;6149939;28;20189;-67
2023/02/11 04:17:14;;;;;;;48.88;25.35;;;;;;;;;;6148240;28;20047;-67
2023/02/11 04:20:16;;;;;;;51.15;25.05;;;;;;;;;;6149023;28;20058;-67
2023/02/11 04:23:19;;;;;;;48.63;23.67;;;;;;;;;;6149555;28;20063;-67
2023/02/11 04:26:21;;;;;;;53.35;24.38;;;;;;;;;;6151842;28;20089;-67
2023/02/11 04:29:22;;;;;;;50.50;25.67;;;;;;;;;;6148341;28;20059;-67
2023/02/11 04:32:24;;;;;;;49.53;23.83;;;;;;;;;;6149356;28;20056;-67
2023/02/11 04:35:26;;;;;;;48.75;24.98;;;;;;;;;;6147946;28;20056;-66
2023/02/11 04:38:29;;;;;;;46.25;23.50;;;;;;;;;;6151126;28;20091;-67
2023/02/11 04:41:30;;;;;;;47.10;23.20;;;;;;;;;;6150110;28;20327;-66
2023/02/11 04:44:32;;;;;;;51.22;23.75;;;;;;;;;;6150072;28;20058;-67
2023/02/11 04:47:35;;;;;;;49.25;24.95;;;;;;;;;;6149829;28;21851;-66
2023/02/11 04:50:36;;;;;;;48.72;23.70;;;;;;;;;;6151465;28;20043;-66
2023/02/11 04:53:40;;;;;;;62.55;26.77;;;;;;;;;;6150893;28;20251;-67
2023/02/11 04:56:41;;;;;;;49.15;23.35;;;;;;;;;;6149468;28;20051;-67
2023/02/11 04:59:43;;;;;;;56.20;25.20;;;;;;;;;;6149588;28;20054;-67
2023/02/11 05:02:44;;;;;;;53.90;23.23;;;;;;;;;;6151212;28;20062;-67
2023/02/11 05:05:46;;;;;;;45.55;24.42;;;;;;;;;;6149303;28;20115;-68
2023/02/11 05:08:49;;;;;;;55.70;23.15;;;;;;;;;;6147962;28;20068;-67
2023/02/11 05:11:51;;;;;;;47.50;23.35;;;;;;;;;;6149237;28;20067;-66
2023/02/11 05:14:54;;;;;;;43.65;23.45;;;;;;;;;;6146823;28;20146;-67
2023/02/11 05:17:56;;;;;;;47.75;23.88;;;;;;;;;;6150756;28;20102;-66
2023/02/11 05:20:57;;;;;;;47.42;23.58;;;;;;;;;;6147141;28;20366;-68
2023/02/11 05:24:00;;;;;;;48.45;24.25;;;;;;;;;;6149158;28;20051;-68
2023/02/11 05:27:02;;;;;;;46.08;24.20;;;;;;;;;;6148506;28;20055;-66
2023/02/11 05:30:05;;;;;;;46.22;24.10;;;;;;;;;;6145736;28;20052;-67
2023/02/11 05:33:07;;;;;;;45.78;23.52;;;;;;;;;;6148543;28;20039;-67
2023/02/11 05:36:10;;;;;;;50.85;25.42;;;;;;;;;;6149666;28;20063;-67
2023/02/11 05:39:13;;;;;;;53.78;25.67;;;;;;;;;;6148423;28;20059;-68
2023/02/11 05:42:15;;;;;;;49.45;25.85;;;;;;;;;;6149163;28;20055;-65
2023/02/11 05:45:16;;;;;;;54.42;26.73;;;;;;;;;;6149950;28;20091;-67
2023/02/11 05:48:18;;;;;;;51.45;24.52;;;;;;;;;;6147598;28;20063;-67
2023/02/11 05:51:20;;;;;;;49.60;24.92;;;;;;;;;;6149344;28;20051;-68
2023/02/11 05:54:23;;;;;;;51.10;24.70;;;;;;;;;;6147162;28;20345;-67
2023/02/11 05:57:24;;;;;;;49.78;25.05;;;;;;;;;;6149553;28;20110;-66
2023/02/11 06:00:26;;;;;;;46.22;23.88;;;;;;;;;;6150418;28;20081;-66
2023/02/11 06:03:28;;;;;;;47.33;24.38;;;;;;;;;;6148551;28;20077;-67
2023/02/11 06:06:30;;;;;;;49.50;23.75;;;;;;;;;;6148075;28;20047;-68
2023/02/11 06:09:33;;;;;;;45.25;22.30;;;;;;;;;;6146404;28;20202;-66
2023/02/11 06:12:36;;;;;;;42.13;22.48;;;;;;;;;;6147986;28;20047;-67
2023/02/11 06:15:37;;;;;;;41.63;21.17;;;;;;;;;;6147505;28;20263;-68
2023/02/11 06:18:39;;;;;;;43.03;21.75;;;;;;;;;;6147611;28;20118;-68
2023/02/11 06:21:41;;;;;;;43.45;23.63;;;;;;;;;;6148765;28;20047;-68
2023/02/11 06:24:44;;;;;;;45.47;21.35;;;;;;;;;;6145654;28;20055;-67
2023/02/11 06:27:45;;;;;;;44.40;23.77;;;;;;;;;;6147196;28;20058;-66
2023/02/11 06:30:47;;;;;;;50.53;24.33;;;;;;;;;;6145946;28;20055;-66
2023/02/11 06:33:49;;;;;;;47.88;25.48;;;;;;;;;;6150343;28;20078;-66
2023/02/11 06:36:51;;;;;;;48.15;24.55;;;;;;;;;;6148774;28;20389;-67
2023/02/11 06:39:54;;;;;;;53.38;25.00;;;;;;;;;;6146717;28;20063;-67
2023/02/11 06:42:55;;;;;;;48.88;23.38;;;;;;;;;;6146549;28;20070;-67
2023/02/11 06:45:57;;;;;;;49.13;23.58;;;;;;;;;;6146247;28;20075;-68
2023/02/11 06:48:59;;;;;;;52.25;23.67;;;;;;;;;;6146301;28;20290;-67
2023/02/11 06:52:00;;;;;;;46.47;22.75;;;;;;;;;;6145925;28;20056;-65
2023/02/11 06:55:04;;;;;;;47.92;22.17;;;;;;;;;;6146189;28;20373;-67
2023/02/11 06:58:05;;;;;;;53.00;23.10;;;;;;;;;;6146945;28;20256;-66
2023/02/11 07:01:09;;;;;;;46.30;22.85;;;;;;;;;;6147005;28;20062;-66
2023/02/11 07:04:10;;;;;;;48.13;22.52;;;;;;;;;;6145161;28;20074;-67
2023/02/11 07:07:12;;;;;;;44.75;21.38;;;;;;;;;;6148656;28;20058;-67
2023/02/11 07:10:15;;;;;;;46.08;22.60;;;;;;;;;;6145706;28;20122;-68
2023/02/11 07:13:17;;;;;;;46.38;22.15;;;;;;;;;;6146798;28;20047;-67
2023/02/11 07:16:19;;;;;;;43.13;21.88;;;;;;;;;;6147046;28;20070;-67
2023/02/11 07:19:20;;;;;;;47.25;23.77;;;;;;;;;;6143983;28;20334;-66
2023/02/11 07:22:22;;;;;;;43.25;21.52;;;;;;;;;;6146051;28;20062;-67
2023/02/11 07:25:25;;;;;;;45.03;22.58;;;;;;;;;;6148104;28;20058;-67
2023/02/11 07:28:27;;;;;;;44.90;22.63;;;;;;;;;;6145865;28;20055;-68
2023/02/11 07:31:29;;;;;;;40.83;20.70;;;;;;;;;;6147151;28;20059;-66
2023/02/11 07:34:31;;;;;;;41.47;22.13;;;;;;;;;;6145444;28;20048;-66
2023/02/11 07:37:34;;;;;;;39.95;20.23;;;;;;;;;;6144778;28;20055;-67
2023/02/11 07:40:37;;;;;;;43.42;22.10;;;;;;;;;;6146305;28;20347;-66
2023/02/11 07:43:39;;;;;;;39.58;20.70;;;;;;;;;;6151344;28;20356;-66
2023/02/11 07:46:43;;;;;;;44.72;21.90;;;;;;;;;;6151323;28;20054;-66
2023/02/11 07:49:46;;;;;;;41.80;20.55;;;;;;;;;;6153267;28;20192;-66
2023/02/11 07:52:48;;;;;;;39.40;21.63;;;;;;;;;;6148356;28;20259;-66
2023/02/11 07:55:51;;;;;;;36.60;20.35;;;;;;;;;;6149464;28;20055;-67
2023/02/11 07:58:53;;;;;;;39.15;21.40;;;;;;;;;;6150205;28;20055;-68
2023/02/11 08:01:54;;;;;;;41.25;22.08;;;;;;;;;;6150849;28;20047;-69
2023/02/11 08:04:56;;;;;;;39.58;21.85;;;;;;;;;;6148523;28;20055;-68
2023/02/11 08:07:58;;;;;;;38.25;21.50;;;;;;;;;;6151733;28;20063;-69
2023/02/11 08:11:06;;;;;;;43.03;21.02;;;;;;;;;;6148649;28;20055;-67
2023/02/11 08:14:08;;;;;;;38.03;19.92;;;;;;;;;;6146837;28;20081;-67
2023/02/11 08:17:10;;;;;;;37.03;20.65;;;;;;;;;;6151423;28;20059;-66
2023/02/11 08:20:12;;;;;;;39.00;20.20;;;;;;;;;;6149483;28;20055;-67
2023/02/11 08:23:14;;;;;;;35.40;20.15;;;;;;;;;;6150161;28;20055;-68
2023/02/11 08:26:19;;;;;;;38.25;20.98;;;;;;;;;;6148345;28;20339;-67
2023/02/11 08:29:20;;;;;;;41.97;21.00;;;;;;;;;;6151520;28;20066;-66
2023/02/11 08:32:24;;;;;;;35.63;19.98;;;;;;;;;;6150124;28;20087;-65
2023/02/11 08:35:25;;;;;;;39.00;21.23;;;;;;;;;;6148689;28;20238;-65
2023/02/11 08:38:27;;;;;;;34.70;19.92;;;;;;;;;;6151127;28;20110;-68
2023/02/11 08:41:30;;;;;;;40.47;20.35;;;;;;;;;;6150732;28;20460;-66
2023/02/11 08:44:32;;;;;;;38.13;20.00;;;;;;;;;;6146508;28;20101;-67
2023/02/11 08:47:34;;;;;;;33.10;19.63;;;;;;;;;;6150873;28;20059;-68
2023/02/11 08:50:38;;;;;;;36.95;18.73;;;;;;;;;;6148518;28;20059;-67
2023/02/11 08:53:40;;;;;;;38.15;20.55;;;;;;;;;;6142698;28;20188;-67
2023/02/11 08:56:43;;;;;;;33.95;19.08;;;;;;;;;;6151915;28;20046;-67
2023/02/11 08:59:45;;;;;;;36.83;19.95;;;;;;;;;;6150442;28;20122;-67
2023/02/11 09:02:49;;;;;;;33.80;19.75;;;;;;;;;;6149570;28;20055;-67
2023/02/11 09:05:52;;;;;;;35.33;18.88;;;;;;;;;;6148599;28;20059;-67
2023/02/11 09:08:55;;;;;;;36.58;22.35;;;;;;;;;;6148383;28;20311;-67
2023/02/11 09:12:00;;;;;;;36.47;21.50;;;;;;;;;;6149717;28;20119;-67
2023/02/11 09:15:02;;;;;;;39.17;23.48;;;;;;;;;;6147363;28;20122;-68
2023/02/11 09:18:04;;;;;;;38.40;20.75;;;;;;;;;;6150637;28;20062;-67
2023/02/11 09:21:08;;;;;;;33.97;20.08;;;;;;;;;;6148851;28;20776;-68
2023/02/11 09:24:10;;;;;;;33.30;19.90;;;;;;;;;;6148302;28;20062;-66
2023/02/11 09:27:13;;;;;;;29.83;17.33;;;;;;;;;;6149516;28;20248;-70
2023/02/11 09:30:15;;;;;;;29.85;17.75;;;;;;;;;;6149683;28;20331;-67
2023/02/11 09:33:17;;;;;;;30.02;18.55;;;;;;;;;;6150051;28;20062;-67
2023/02/11 09:36:20;;;;;;;31.15;18.75;;;;;;;;;;6147920;28;20110;-67
2023/02/11 09:39:21;;;;;;;31.90;18.60;;;;;;;;;;6148108;28;20067;-67
2023/02/11 09:42:47;;;;;;;31.05;18.90;;;;;;;;;;6146792;28;20078;-70
2023/02/11 09:45:50;;;;;;;30.83;18.42;;;;;;;;;;6145984;28;20126;-67
2023/02/11 09:48:53;;;;;;;30.52;19.13;;;;;;;;;;6148452;28;20059;-68
2023/02/11 09:51:59;;;;;;;34.60;20.60;;;;;;;;;;6149539;28;20335;-67
2023/02/11 09:55:03;;;;;;;34.95;20.83;;;;;;;;;;6149017;28;20107;-66
2023/02/11 09:58:10;;;;;;;;;;;;;;;;;;6148923;28;20054;-67
2023/02/11 10:01:28;;;;;;;34.40;19.52;;;;;;;;;;6150614;28;19931;-66
2023/02/11 10:04:45;;;;;;;38.03;21.50;;;;;;;;;;6147529;28;20062;-67
2023/02/11 10:07:52;;;;;;;33.10;19.45;;;;;;;;;;6147452;28;20058;-66
2023/02/11 10:10:57;;;;;;;29.10;18.17;;;;;;;;;;6149447;28;20126;-65
2023/02/11 10:14:11;;;;;;;35.33;18.73;;;;;;;;;;6149548;28;20250;-65
2023/02/11 10:17:21;;;;;;;32.40;18.97;;;;;;;;;;6151136;28;20067;-66
2023/02/11 10:20:26;;;;;;;30.70;17.42;;;;;;;;;;6147952;28;20058;-67
2023/02/11 10:23:33;;;;;;;35.45;19.70;;;;;;;;;;6147995;28;20056;-70
2023/02/11 10:26:36;;;;;;;29.15;16.95;;;;;;;;;;6147038;28;20063;-71
2023/02/11 10:29:43;;;;;;;31.20;16.80;;;;;;;;;;6147025;28;20054;-70
2023/02/11 10:32:48;;;;;;;27.58;17.75;;;;;;;;;;6146976;28;20055;-70
2023/02/11 10:35:50;;;;;;;23.88;15.75;;;;;;;;;;6147183;28;20258;-72
2023/02/11 10:38:51;;;;;;;29.23;17.20;;;;;;;;;;6145397;28;20562;-69
2023/02/11 10:41:57;;;;;;;25.27;16.40;;;;;;;;;;6146746;28;20062;-68
2023/02/11 10:45:03;;;;;;;29.65;16.80;;;;;;;;;;6147707;28;20051;-68
2023/02/11 10:48:06;;;;;;;26.90;16.10;;;;;;;;;;6149538;28;20065;-68
2023/02/11 10:51:16;;;;;;;24.08;15.13;;;;;;;;;;6149016;28;20061;-67
2023/02/11 10:54:20;;;;;;;25.02;15.93;;;;;;;;;;6147911;28;20054;-69
2023/02/11 10:57:21;;;;;;;22.73;14.60;;;;;;;;;;6148392;28;20114;-68
2023/02/11 11:00:32;;;;;;;24.45;13.85;;;;;;;;;;6148966;28;20236;-68
2023/02/11 11:03:37;;;;;;;24.55;13.82;;;;;;;;;;6150165;28;20048;-68
2023/02/11 11:06:39;;;;;;;29.58;14.02;;;;;;;;;;6145754;28;20082;-68
2023/02/11 11:09:46;;;;;;;24.85;15.43;;;;;;;;;;6146101;28;20051;-69
2023/02/11 11:12:48;;;;;;;21.95;13.70;;;;;;;;;;6145624;28;20054;-69
2023/02/11 11:16:08;;;;;;;21.73;13.02;;;;;;;;;;6146867;28;20109;-68
2023/02/11 11:19:21;;;;;;;23.02;13.60;;;;;;;;;;6146601;28;20047;-69
2023/02/11 11:22:23;;;;;;;23.83;13.68;;;;;;;;;;6146917;28;20254;-67
2023/02/11 11:25:28;;;;;;;23.65;14.70;;;;;;;;;;6148981;28;20169;-68
2023/02/11 11:28:31;;;;;;;24.58;13.90;;;;;;;;;;6146601;28;20071;-68
2023/02/11 11:31:46;;;;;;;25.63;15.00;;;;;;;;;;6146781;28;20055;-70
2023/02/11 11:34:52;;;;;;;27.27;15.95;;;;;;;;;;6147907;28;20126;-69
2023/02/11 11:37:55;;;;;;;25.05;15.25;;;;;;;;;;6144524;28;20047;-68
2023/02/11 11:41:15;;;;;;;23.23;13.93;;;;;;;;;;6148033;28;20093;-69
2023/02/11 11:44:24;;;;;;;25.80;14.95;;;;;;;;;;6147063;28;20118;-69
2023/02/11 11:47:32;;;;;;;24.65;14.35;;;;;;;;;;6145219;28;20179;-69
2023/02/11 11:50:36;;;;;;;27.27;16.10;;;;;;;;;;6147547;28;20339;-70
2023/02/11 11:53:41;;;;;;;23.65;15.10;;;;;;;;;;6148492;28;20059;-69
2023/02/11 11:56:52;;;;;;;24.45;15.75;;;;;;;;;;6145329;28;20403;-68
2023/02/11 11:59:54;;;;;;;26.40;15.40;;;;;;;;;;6146385;28;20417;-68
2023/02/11 12:03:38;;;;;;;24.25;15.77;;;;;;;;;;6145503;28;20149;-69
2023/02/11 12:06:45;;;;;;;23.20;15.00;;;;;;;;;;6143356;28;20084;-69
2023/02/11 12:10:00;;;;;;;25.10;15.02;;;;;;;;;;6145052;28;20107;-68
2023/02/11 12:13:10;;;;;;;22.83;15.13;;;;;;;;;;6145743;28;20063;-71
2023/02/11 12:16:20;;;;;;;24.83;14.52;;;;;;;;;;6145757;28;20393;-71
2023/02/11 12:19:47;;;;;;;23.83;15.07;;;;;;;;;;6148781;28;20051;-70
2023/02/11 12:22:58;;;;;;;25.30;16.25;;;;;;;;;;6144393;28;20055;-72
2023/02/11 12:26:06;;;;;;;26.13;16.05;;;;;;;;;;6147953;28;20339;-71
2023/02/11 12:29:17;;;;;;;29.80;16.15;;;;;;;;;;6136611;28;20059;-70
2023/02/11 12:32:26;;;;;;;26.42;16.90;;;;;;;;;;6151055;28;20059;-69
2023/02/11 12:35:35;;;;;;;24.23;15.68;;;;;;;;;;6153736;28;20051;-72
2023/02/11 12:38:50;;;;;;;26.08;16.15;;;;;;;;;;6151172;28;20231;-70
2023/02/11 12:45:26;;;;;;;22.23;14.98;;;;;;;;;;6151966;28;19918;-67
2023/02/11 12:48:42;;;;;;;26.48;15.82;;;;;;;;;;6149951;28;20078;-66
2023/02/11 12:51:55;;;;;;;25.15;14.85;;;;;;;;;;6148789;28;20059;-67
2023/02/11 12:55:00;;;;;;;25.80;16.02;;;;;;;;;;6151625;28;20098;-69
2023/02/11 12:58:02;;;;;;;28.95;15.85;;;;;;;;;;6149567;28;20108;-68
2023/02/11 13:01:09;;;;;;;23.38;15.13;;;;;;;;;;6149444;28;20273;-67
2023/02/11 13:04:16;;;;;;;25.52;16.23;;;;;;;;;;6148124;28;20086;-70
2023/02/11 13:07:23;;;;;;;27.70;16.88;;;;;;;;;;6150077;28;20051;-70
2023/02/11 13:10:29;;;;;;;28.35;17.45;;;;;;;;;;6148476;28;20183;-69
2023/02/11 13:13:33;;;;;;;27.55;17.60;;;;;;;;;;6152957;28;20058;-69
2023/02/11 13:16:36;;;;;;;31.52;18.17;;;;;;;;;;6149648;28;20183;-69
2023/02/11 13:19:42;;;;;;;26.30;16.30;;;;;;;;;;6148435;28;20300;-69
2023/02/11 13:22:49;;;;;;;27.38;16.98;;;;;;;;;;6150113;28;20123;-68
2023/02/11 13:25:56;;;;;;;28.23;18.40;;;;;;;;;;6151183;28;20119;-68
2023/02/11 13:29:09;;;;;;;30.23;19.48;;;;;;;;;;6149376;28;20055;-69
2023/02/11 13:32:13;;;;;;;27.40;18.17;;;;;;;;;;6149469;28;20242;-69
2023/02/11 13:35:28;;;;;;;27.55;17.67;;;;;;;;;;6148836;28;20228;-68
2023/02/11 13:38:31;;;;;;;28.83;19.08;;;;;;;;;;6147506;28;20043;-69
2023/02/11 13:41:35;;;;;;;26.92;19.20;;;;;;;;;;6146385;28;20066;-69
2023/02/11 13:44:37;;;;;;;29.73;19.85;;;;;;;;;;6150988;28;20051;-69
2023/02/11 13:47:39;;;;;;;34.22;21.45;;;;;;;;;;6149768;28;20051;-69
2023/02/11 13:50:46;;;;;;;30.40;20.55;;;;;;;;;;6148190;28;20055;-69
2023/02/11 13:53:53;;;;;;;32.60;19.98;;;;;;;;;;6148255;28;20216;-69
2023/02/11 13:57:32;;;;;;;26.80;18.67;;;;;;;;;;6145747;28;20131;-68
2023/02/11 14:00:45;;;;;;;30.83;19.83;;;;;;;;;;6150513;28;20051;-69
2023/02/11 14:10:54;;;;;;;27.48;18.88;;;;;;;;;;6148944;28;19981;-69
2023/02/11 14:14:04;;;;;;;32.20;20.33;;;;;;;;;;6152659;28;20051;-69
2023/02/11 14:17:30;;;;;;;30.88;19.08;;;;;;;;;;6148551;28;20106;-70
2023/02/11 14:20:36;;;;;;;25.42;18.65;;;;;;;;;;6144156;28;20058;-70
2023/02/11 14:23:37;;;;;;;31.30;20.25;;;;;;;;;;6150026;28;20379;-70
2023/02/11 14:26:47;;;;;;;27.77;18.90;;;;;;;;;;6148776;28;20265;-70
2023/02/11 14:30:02;;;;;;;30.35;20.50;;;;;;;;;;6148924;28;20055;-69
2023/02/11 14:33:19;;;;;;;30.52;19.70;;;;;;;;;;6148442;28;20055;-73
2023/02/11 14:36:43;;;;;;;29.73;20.42;;;;;;;;;;6147654;28;20075;-71
2023/02/11 14:39:56;;;;;;;29.50;20.27;;;;;;;;;;6144917;28;20156;-71
2023/02/11 14:43:04;;;;;;;28.83;20.60;;;;;;;;;;6150456;28;20493;-70
2023/02/11 14:46:06;;;;;;;50.05;33.80;;;;;;;;;;6148941;28;20146;-72
2023/02/11 14:49:16;;;;;;;62.15;38.85;;;;;;;;;;6148951;28;20055;-71
2023/02/11 14:52:26;;;;;;;32.58;21.25;;;;;;;;;;6144957;28;20239;-70
2023/02/11 14:55:31;;;;;;;28.05;19.30;;;;;;;;;;6146856;28;20279;-70
2023/02/11 14:58:34;;;;;;;28.80;20.15;;;;;;;;;;6147140;28;20066;-71
2023/02/11 15:01:41;;;;;;;29.00;20.10;;;;;;;;;;6148331;28;20058;-70
2023/02/11 15:04:43;;;;;;;32.20;20.52;;;;;;;;;;6146980;28;20393;-70
2023/02/11 15:07:47;;;;;;;27.40;19.40;;;;;;;;;;6148363;28;20282;-70
2023/02/11 15:10:49;;;;;;;30.90;21.35;;;;;;;;;;6147412;28;20062;-70
2023/02/11 15:13:52;;;;;;;30.08;19.83;;;;;;;;;;6143826;28;20055;-70
2023/02/11 15:16:57;;;;;;;29.88;19.00;;;;;;;;;;6144086;28;20260;-70
2023/02/11 15:20:01;;;;;;;26.25;18.35;;;;;;;;;;6146244;28;21173;-70
2023/02/11 15:23:02;;;;;;;;;;;;;;;;;;6145476;28;20051;-70
2023/02/11 15:26:13;;;;;;;28.13;19.38;;;;;;;;;;6146242;28;19926;-70
2023/02/11 15:29:17;;;;;;;30.98;19.33;;;;;;;;;;6143849;28;20126;-71
2023/02/11 15:32:20;;;;;;;28.70;18.77;;;;;;;;;;6145732;28;20251;-70
2023/02/11 15:35:22;;;;;;;29.55;20.08;;;;;;;;;;6147461;28;20126;-70
2023/02/11 15:38:24;;;;;;;27.48;18.60;;;;;;;;;;6147012;28;20059;-70
2023/02/11 15:41:35;;;;;;;29.15;18.55;;;;;;;;;;6145139;28;20055;-70
2023/02/11 15:44:38;;;;;;;28.45;18.98;;;;;;;;;;6144191;28;20140;-70
2023/02/11 15:47:41;;;;;;;26.90;18.87;;;;;;;;;;6146220;28;20369;-70
2023/02/11 15:50:45;;;;;;;28.67;18.58;;;;;;;;;;6142051;28;20225;-69
2023/02/11 15:53:51;;;;;;;30.67;18.80;;;;;;;;;;6145832;28;20129;-70
2023/02/11 15:56:55;;;;;;;29.77;19.55;;;;;;;;;;6147814;28;20063;-70
2023/02/11 16:00:03;;;;;;;27.92;18.88;;;;;;;;;;6147515;28;20047;-70
2023/02/11 16:03:05;;;;;;;29.20;18.75;;;;;;;;;;6147472;28;20070;-70
2023/02/11 16:06:20;;;;;;;33.47;19.33;;;;;;;;;;6149939;28;20047;-70
2023/02/11 16:09:25;;;;;;;30.00;18.80;;;;;;;;;;6149328;28;20487;-70
2023/02/11 16:12:26;;;;;;;29.42;18.48;;;;;;;;;;6152315;28;20054;-70
2023/02/11 16:15:49;;;;;;;27.80;17.08;;;;;;;;;;6150417;28;20051;-69
2023/02/11 16:18:52;;;;;;;33.15;17.27;;;;;;;;;;6148015;28;20111;-69
2023/02/11 16:21:55;;;;;;;31.35;16.90;;;;;;;;;;6150495;28;20246;-67
2023/02/11 16:24:58;;;;;;;27.10;16.58;;;;;;;;;;6147749;28;20051;-69
2023/02/11 16:28:00;;;;;;;27.83;17.03;;;;;;;;;;6146774;28;20270;-68
2023/02/11 16:31:04;;;;;;;26.25;16.25;;;;;;;;;;6146681;28;20523;-69
2023/02/11 16:34:12;;;;;;;28.58;17.50;;;;;;;;;;6150493;28;20114;-68
2023/02/11 16:37:13;;;;;;;28.73;17.33;;;;;;;;;;6151297;28;20455;-68
2023/02/11 16:40:16;;;;;;;31.70;17.05;;;;;;;;;;6150132;28;20279;-68
2023/02/11 16:43:19;;;;;;;29.90;16.45;;;;;;;;;;6147721;28;20074;-68
2023/02/11 16:46:22;;;;;;;29.00;16.83;;;;;;;;;;6147500;28;20062;-68
2023/02/11 16:49:26;;;;;;;30.85;18.33;;;;;;;;;;6145847;28;20458;-69
2023/02/11 16:52:30;;;;;;;33.75;18.08;;;;;;;;;;6148512;28;20106;-68
2023/02/11 16:55:32;;;;;;;32.53;19.00;;;;;;;;;;6150994;28;20118;-68
2023/02/11 16:58:34;;;;;;;37.03;18.80;;;;;;;;;;6146276;28;20059;-68
2023/02/11 17:01:38;;;;;;;27.83;17.90;;;;;;;;;;6148063;28;20047;-68
2023/02/11 17:04:40;;;;;;;;;;;;;;;;;;6150933;28;20126;-68
2023/02/11 17:07:42;;;;;;;27.77;17.65;;;;;;;;;;6150420;28;19925;-68
2023/02/11 17:10:43;;;;;;;32.90;18.63;;;;;;;;;;6148814;28;20089;-68
2023/02/11 17:13:45;;;;;;;33.53;18.67;;;;;;;;;;6149468;28;20055;-68
2023/02/11 17:16:48;;;;;;;35.60;20.23;;;;;;;;;;6150157;28;20054;-68
2023/02/11 17:19:50;;;;;;;35.50;19.52;;;;;;;;;;6150687;28;20095;-68
2023/02/11 17:22:51;;;;;;;33.40;18.50;;;;;;;;;;6150865;28;20115;-68
2023/02/11 17:25:56;;;;;;;30.80;17.80;;;;;;;;;;6148839;28;20063;-68
2023/02/11 17:28:58;;;;;;;37.25;19.63;;;;;;;;;;6148824;28;20127;-68
2023/02/11 17:32:01;;;;;;;39.90;20.48;;;;;;;;;;6150878;28;20055;-68
2023/02/11 17:35:04;;;;;;;34.95;18.98;;;;;;;;;;6149792;28;20246;-68
2023/02/11 17:38:06;;;;;;;35.55;19.00;;;;;;;;;;6149977;28;20343;-68
2023/02/11 17:41:07;;;;;;;40.40;20.00;;;;;;;;;;6146242;28;20043;-68
2023/02/11 17:44:12;;;;;;;35.40;20.73;;;;;;;;;;6146060;28;20059;-68
2023/02/11 17:47:15;;;;;;;36.17;20.65;;;;;;;;;;6147675;28;20058;-68
2023/02/11 17:50:17;;;;;;;37.72;20.33;;;;;;;;;;6145138;28;20099;-68
2023/02/11 17:53:19;;;;;;;44.10;20.58;;;;;;;;;;6146972;28;20055;-68
2023/02/11 17:56:21;;;;;;;37.10;20.63;;;;;;;;;;6145058;28;20334;-68
2023/02/11 17:59:24;;;;;;;38.42;21.10;;;;;;;;;;6148940;28;20054;-73
2023/02/11 18:02:27;;;;;;;79.13;41.15;;;;;;;;;;6146777;28;20051;-71
2023/02/11 18:05:29;;;;;;;84.60;42.05;;;;;;;;;;6147276;28;20256;-70
2023/02/11 18:08:31;;;;;;;156.00;76.13;;;;;;;;;;6148320;28;20055;-67
2023/02/11 18:11:34;;;;;;;58.90;32.10;;;;;;;;;;6149630;28;20319;-68